Terminal Aerodrome Forecast
Issued by NWS

Home | Current Version | Previous Version | Text Only | Print | Product List | Glossary On
Versions: 1 2 3 4 5 6 7 8 9 10 11 12 13 14 15 16
171
FTUS45 KRIW 161742
TAFBPI
TAF
KBPI 161742Z 1618/1718 VRB04KT P6SM SCT035 BKN070
     FM162000 VRB05KT P6SM -RA SCT025 OVC035
     FM170500 21013KT P6SM VCSH SCT030 BKN040
     FM171200 31018G28KT P6SM VCSH BKN040=

USA.gov is the U.S. government's official web portal to all federal, state and local government web resources and services.